createdAt,value
2023-01-11T00:00:45.192Z,1.20
2023-01-11T00:04:34.355Z,1.30
2023-01-11T00:08:23.583Z,0.60
2023-01-11T00:12:15.483Z,0.60
2023-01-11T00:15:57.461Z,0.80
2023-01-11T00:19:46.712Z,0.70
2023-01-11T00:23:19.350Z,2.80
2023-01-11T00:26:59.009Z,0.80
2023-01-11T00:30:48.359Z,0.80
2023-01-11T00:34:37.681Z,0.90
2023-01-11T00:38:26.940Z,0.90
2023-01-11T00:42:08.074Z,1.20
2023-01-11T00:45:55.107Z,1.10
2023-01-11T00:49:44.411Z,0.90
2023-01-11T00:53:26.410Z,1.30
2023-01-11T00:57:15.587Z,1.40
2023-01-11T01:01:04.897Z,1.40
2023-01-11T01:04:46.481Z,1.50
2023-01-11T01:08:28.805Z,1.60
2023-01-11T01:12:10.846Z,1.20
2023-01-11T01:16:00.188Z,1.10
2023-01-11T01:19:42.008Z,0.90
2023-01-11T01:23:31.448Z,1.00
2023-01-11T01:27:05.825Z,0.90
2023-01-11T01:30:47.800Z,1.00
2023-01-11T01:34:37.060Z,0.70
2023-01-11T01:38:26.206Z,0.80
2023-01-11T01:42:13.866Z,0.60
2023-01-11T01:46:07.762Z,0.60
2023-01-11T01:49:55.366Z,0.60
2023-01-11T01:53:44.525Z,0.50
2023-01-11T01:57:33.688Z,0.50
2023-01-11T02:01:22.979Z,0.60
2023-01-11T02:05:11.980Z,0.50
2023-01-11T02:08:58.267Z,0.40
2023-01-11T02:12:47.468Z,0.60
2023-01-11T02:16:36.659Z,0.60
2023-01-11T02:20:31.649Z,0.30
2023-01-11T02:24:33.054Z,0.40
2023-01-11T02:28:19.019Z,0.30
2023-01-11T02:32:14.154Z,0.50
2023-01-11T02:36:24.534Z,0.80
2023-01-11T02:40:22.679Z,0.60
2023-01-11T02:44:07.431Z,1.10
2023-01-11T02:47:56.788Z,0.80
2023-01-11T02:51:54.968Z,0.70
2023-01-11T02:55:28.076Z,0.60
2023-01-11T02:59:09.052Z,0.50
2023-01-11T03:02:58.361Z,0.70
2023-01-11T03:06:52.034Z,0.70
2023-01-11T03:10:46.963Z,0.50
2023-01-11T03:14:41.995Z,0.40
2023-01-11T03:18:37.111Z,0.60
2023-01-11T03:22:20.403Z,0.50
2023-01-11T03:26:04.707Z,0.30
2023-01-11T03:29:56.972Z,0.30
2023-01-11T03:33:48.986Z,0.40
2023-01-11T03:37:46.783Z,0.60
2023-01-11T03:41:36.031Z,0.40
2023-01-11T03:45:19.465Z,0.60
2023-01-11T03:48:42.741Z,0.50
2023-01-11T03:52:31.893Z,0.40
2023-01-11T03:56:14.647Z,0.50
2023-01-11T04:00:03.846Z,0.50
2023-01-11T04:03:53.066Z,0.30
2023-01-11T04:07:35.033Z,0.60
2023-01-11T04:11:24.392Z,0.40
2023-01-11T04:15:07.279Z,0.50
2023-01-11T04:18:56.715Z,0.60
2023-01-11T04:22:45.983Z,0.50
2023-01-11T04:26:12.917Z,0.40
2023-01-11T04:30:00.980Z,0.30
2023-01-11T04:33:50.171Z,0.30
2023-01-11T04:37:33.288Z,0.30
2023-01-11T04:41:23.334Z,0.70
2023-01-11T04:45:06.120Z,0.40
2023-01-11T04:48:55.350Z,0.60
2023-01-11T04:52:44.644Z,1.30
2023-01-11T04:56:33.911Z,0.40
2023-01-11T05:00:11.829Z,0.50
2023-01-11T05:04:01.194Z,0.80
2023-01-11T05:07:43.436Z,0.30
2023-01-11T05:11:32.658Z,0.20
2023-01-11T05:15:21.605Z,0.20
2023-01-11T05:19:10.771Z,0.50
2023-01-11T05:22:52.731Z,0.60
2023-01-11T05:26:42.045Z,1.90
2023-01-11T05:30:31.288Z,1.90
2023-01-11T05:34:20.522Z,1.30
2023-01-11T05:38:09.634Z,0.70
2023-01-11T05:41:39.328Z,0.70
2023-01-11T05:45:26.567Z,3.00
2023-01-11T05:49:09.252Z,2.60
2023-01-11T05:52:58.440Z,2.50
2023-01-11T05:56:56.658Z,84.40
2023-01-11T06:00:39.796Z,38.40
2023-01-11T06:04:29.022Z,4.70
2023-01-11T06:08:18.180Z,14.20
2023-01-11T06:12:07.087Z,7.20
2023-01-11T06:15:56.246Z,9.30
2023-01-11T06:19:44.295Z,7.00
2023-01-11T06:23:33.490Z,8.60
2023-01-11T06:27:22.379Z,4.20
2023-01-11T06:31:11.877Z,5.00
2023-01-11T06:34:52.844Z,7.60
2023-01-11T06:38:14.695Z,5.10
2023-01-11T06:42:02.295Z,6.60
2023-01-11T06:45:44.178Z,6.30
2023-01-11T06:49:24.575Z,3.10
2023-01-11T06:52:57.237Z,83.50
2023-01-11T06:56:46.472Z,58.10
2023-01-11T07:00:34.663Z,25.30
2023-01-11T07:04:23.879Z,6.40
2023-01-11T07:08:11.789Z,12.50
2023-01-11T07:12:01.000Z,2.50
2023-01-11T07:15:39.797Z,4.30
2023-01-11T07:19:29.008Z,2.90
2023-01-11T07:23:01.009Z,5.00
2023-01-11T07:26:48.758Z,10.50
2023-01-11T07:30:30.860Z,2.40
2023-01-11T07:34:20.076Z,6.20
2023-01-11T07:38:09.177Z,11.70
2023-01-11T07:41:49.506Z,3.20
2023-01-11T07:45:45.745Z,6.20
2023-01-11T07:49:28.042Z,16.60
2023-01-11T07:53:09.216Z,3.60
2023-01-11T07:56:51.089Z,2.10
2023-01-11T08:00:39.953Z,3.00
2023-01-11T08:04:29.129Z,5.80
2023-01-11T08:08:17.216Z,1.70
2023-01-11T08:12:04.626Z,1.30
2023-01-11T08:15:53.830Z,1.40
2023-01-11T08:19:32.830Z,1.30
2023-01-11T08:23:20.301Z,2.80
2023-01-11T08:27:00.460Z,6.60
2023-01-11T08:30:58.547Z,1.20
2023-01-11T08:34:50.530Z,1.20
2023-01-11T08:38:38.217Z,1.60
2023-01-11T08:42:27.189Z,3.50
2023-01-11T08:46:16.109Z,2.50
2023-01-11T08:50:05.047Z,1.70
2023-01-11T08:53:54.426Z,1.70
2023-01-11T08:57:36.121Z,2.10
2023-01-11T09:01:25.077Z,2.70
2023-01-11T09:05:05.732Z,1.40
2023-01-11T09:08:57.942Z,1.70
2023-01-11T09:12:33.421Z,2.40
2023-01-11T09:16:15.134Z,1.70
2023-01-11T09:20:04.267Z,1.70
2023-01-11T09:23:45.729Z,2.90
2023-01-11T09:27:28.417Z,4.50
2023-01-11T09:31:17.767Z,2.80
2023-01-11T09:35:06.964Z,1.70
2023-01-11T09:38:56.095Z,1.70
2023-01-11T09:42:35.017Z,1.50
2023-01-11T09:46:15.692Z,3.20
2023-01-11T09:50:07.288Z,2.50
2023-01-11T09:53:50.430Z,3.00
2023-01-11T09:57:51.075Z,2.60
2023-01-11T10:02:04.184Z,5.30
2023-01-11T10:05:51.443Z,10.10
2023-01-11T10:18:35.337Z,154.30
2023-01-11T10:22:19.732Z,97.20
2023-01-11T10:26:16.066Z,24.40
2023-01-11T10:30:35.113Z,29.80
2023-01-11T10:34:20.904Z,8.80
2023-01-11T10:38:24.695Z,17.20
2023-01-11T10:42:12.363Z,6.30
2023-01-11T10:46:01.654Z,3.00
2023-01-11T10:49:41.801Z,4.80
2023-01-11T10:53:29.434Z,3.80
2023-01-11T10:57:17.306Z,2.60
2023-01-11T11:01:27.512Z,2.20
2023-01-11T11:05:34.258Z,2.50
2023-01-11T11:09:34.214Z,3.40
2023-01-11T11:13:23.364Z,7.80
2023-01-11T11:17:33.364Z,4.20
2023-01-11T11:21:05.121Z,11.10
2023-01-11T11:24:33.383Z,3.20
2023-01-11T11:31:32.468Z,7.80
2023-01-11T11:35:14.239Z,4.50
2023-01-11T11:38:53.007Z,2.80
2023-01-11T11:42:50.590Z,5.50
2023-01-11T11:46:41.170Z,4.90
2023-01-11T11:50:44.781Z,14.10
2023-01-11T11:54:34.735Z,4.00
2023-01-11T11:58:13.269Z,5.90
2023-01-11T12:02:02.241Z,6.70
2023-01-11T12:05:51.665Z,13.10
2023-01-11T12:09:27.670Z,9.20
2023-01-11T12:13:16.882Z,5.30
2023-01-11T12:17:06.096Z,3.60
2023-01-11T12:21:04.056Z,3.70
2023-01-11T12:24:56.039Z,4.30
2023-01-11T12:29:06.095Z,18.40
2023-01-11T12:32:54.606Z,4.00
2023-01-11T12:36:46.538Z,6.70
2023-01-11T12:40:42.891Z,2.70
2023-01-11T12:44:43.882Z,5.10
2023-01-11T12:48:57.504Z,3.00
2023-01-11T12:53:04.916Z,3.10
2023-01-11T12:57:03.243Z,2.70
2023-01-11T13:01:01.357Z,5.00
2023-01-11T13:05:11.243Z,6.10
2023-01-11T13:09:01.814Z,5.30
2023-01-11T13:12:49.017Z,58.00
2023-01-11T13:16:38.920Z,21.30
2023-01-11T13:20:59.494Z,18.20
2023-01-11T13:24:55.902Z,8.60
2023-01-11T13:28:45.034Z,12.00
2023-01-11T13:32:37.172Z,20.50
2023-01-11T13:36:23.782Z,8.60
2023-01-11T13:40:13.286Z,12.60
2023-01-11T13:44:08.189Z,3.40
2023-01-11T13:47:57.448Z,3.60
2023-01-11T13:51:55.273Z,3.70
2023-01-11T13:55:53.682Z,3.70
2023-01-11T13:59:45.983Z,3.90
2023-01-11T14:03:35.294Z,3.80
2023-01-11T14:07:33.282Z,4.80
2023-01-11T14:11:25.576Z,3.80
2023-01-11T14:15:22.668Z,4.30
2023-01-11T14:19:17.938Z,7.70
2023-01-11T14:23:18.768Z,6.80
2023-01-11T14:27:15.409Z,9.90
2023-01-11T14:31:07.505Z,4.70
2023-01-11T14:34:53.531Z,4.20
2023-01-11T14:38:47.345Z,4.40
2023-01-11T14:42:37.002Z,10.30
2023-01-11T14:46:34.833Z,7.50
2023-01-11T14:50:25.403Z,6.90
2023-01-11T14:54:14.654Z,7.00
2023-01-11T14:58:18.853Z,7.50
2023-01-11T15:02:07.857Z,7.90
2023-01-11T15:06:11.874Z,6.60
2023-01-11T15:09:59.133Z,7.70
2023-01-11T15:13:48.249Z,6.90
2023-01-11T15:17:35.231Z,12.80
2023-01-11T15:21:36.194Z,22.70
2023-01-11T15:25:28.210Z,13.90
2023-01-11T15:29:18.665Z,20.20
2023-01-11T15:33:07.918Z,52.30
2023-01-11T15:36:57.224Z,63.60
2023-01-11T15:40:55.335Z,59.60
2023-01-11T15:45:02.696Z,53.80
2023-01-11T15:49:16.012Z,61.60
2023-01-11T15:53:18.488Z,54.60
2023-01-11T15:57:21.687Z,38.80
2023-01-11T16:01:23.131Z,24.10
2023-01-11T16:05:21.449Z,20.20
2023-01-11T16:09:09.370Z,16.50
2023-01-11T16:13:04.563Z,18.00
2023-01-11T16:17:11.880Z,14.40
2023-01-11T16:21:01.163Z,16.80
2023-01-11T16:24:50.392Z,11.50
2023-01-11T16:28:39.527Z,11.70
2023-01-11T16:32:37.739Z,18.50
2023-01-11T16:36:26.879Z,24.00
2023-01-11T16:40:16.101Z,40.00
2023-01-11T16:43:59.933Z,43.60
2023-01-11T16:47:47.241Z,49.70
2023-01-11T16:51:42.001Z,40.00
2023-01-11T16:55:31.157Z,32.30
2023-01-11T16:59:24.339Z,29.90
2023-01-11T17:03:01.507Z,29.80
2023-01-11T17:06:53.459Z,31.80
2023-01-11T17:10:33.739Z,30.50
2023-01-11T17:14:40.858Z,28.30
2023-01-11T17:18:30.129Z,27.00
2023-01-11T17:22:18.000Z,33.60
2023-01-11T17:26:14.435Z,46.50
2023-01-11T17:30:02.290Z,45.20
2023-01-11T17:33:57.419Z,44.20
2023-01-11T17:37:46.659Z,42.00
2023-01-11T17:41:34.298Z,36.10
2023-01-11T17:45:34.711Z,31.30
2023-01-11T17:49:33.496Z,32.80
2023-01-11T17:53:22.643Z,38.20
2023-01-11T17:57:14.495Z,37.60
2023-01-11T18:01:04.107Z,31.20
2023-01-11T18:04:58.994Z,28.80
2023-01-11T18:08:39.212Z,35.10
2023-01-11T18:12:40.679Z,40.40
2023-01-11T18:16:33.121Z,53.20
2023-01-11T18:20:21.228Z,53.70
2023-01-11T18:24:13.297Z,44.90
2023-01-11T18:28:05.226Z,48.90
2023-01-11T18:31:53.079Z,33.20
2023-01-11T18:35:42.225Z,31.20
2023-01-11T18:39:31.434Z,21.80
2023-01-11T18:43:20.762Z,22.30
2023-01-11T18:47:09.988Z,23.40
2023-01-11T18:50:59.431Z,30.90
2023-01-11T18:54:48.828Z,35.80
2023-01-11T18:58:38.092Z,27.20
2023-01-11T19:06:06.045Z,18.60
2023-01-11T19:09:53.805Z,51.30
2023-01-11T19:13:41.901Z,35.80
2023-01-11T19:17:31.171Z,23.90
2023-01-11T19:21:20.208Z,16.60
2023-01-11T19:25:09.542Z,16.00
2023-01-11T19:28:58.829Z,14.30
2023-01-11T19:32:48.069Z,15.50
2023-01-11T19:36:37.263Z,13.90
2023-01-11T19:40:26.439Z,13.20
2023-01-11T19:44:14.439Z,7.00
2023-01-11T19:48:03.621Z,16.90
2023-01-11T19:51:52.605Z,9.50
2023-01-11T19:55:44.771Z,7.50
2023-01-11T19:59:26.846Z,6.30
2023-01-11T20:03:15.871Z,5.60
2023-01-11T20:07:05.187Z,5.30
2023-01-11T20:10:54.388Z,5.30
2023-01-11T20:14:43.661Z,7.20
2023-01-11T20:18:32.971Z,6.70
2023-01-11T20:22:22.102Z,9.40
2023-01-11T20:26:10.137Z,10.60
2023-01-11T20:29:59.776Z,10.80
2023-01-11T20:33:49.040Z,11.00
2023-01-11T20:37:38.322Z,10.30
2023-01-11T20:41:27.634Z,9.40
2023-01-11T20:45:22.837Z,13.50
2023-01-11T20:49:12.039Z,16.50
2023-01-11T20:53:01.214Z,8.60
2023-01-11T20:56:32.999Z,6.40
2023-01-11T21:00:04.703Z,6.40
2023-01-11T21:03:53.956Z,14.20
2023-01-11T21:07:43.160Z,12.90
2023-01-11T21:11:25.551Z,12.20
2023-01-11T21:15:15.015Z,16.20
2023-01-11T21:18:57.053Z,16.10
2023-01-11T21:22:46.315Z,16.30
2023-01-11T21:26:35.533Z,14.10
2023-01-11T21:30:24.784Z,14.70
2023-01-11T21:34:13.023Z,15.00
2023-01-11T21:38:02.216Z,16.60
2023-01-11T21:41:52.247Z,19.20
2023-01-11T21:45:24.936Z,19.20
2023-01-11T21:49:12.745Z,18.90
2023-01-11T21:52:54.651Z,19.00
2023-01-11T21:56:43.909Z,19.10
2023-01-11T22:00:33.231Z,20.20
2023-01-11T22:04:22.639Z,19.70
2023-01-11T22:08:11.818Z,18.50
2023-01-11T22:12:01.142Z,20.30
2023-01-11T22:15:50.520Z,34.30
2023-01-11T22:19:39.782Z,30.80
2023-01-11T22:23:29.089Z,24.50
2023-01-11T22:27:18.096Z,39.90
2023-01-11T22:30:59.702Z,33.50
2023-01-11T22:34:48.900Z,30.00
2023-01-11T22:38:38.281Z,25.70
2023-01-11T22:42:27.445Z,27.10
2023-01-11T22:46:16.712Z,27.50
2023-01-11T22:50:05.944Z,24.50
2023-01-11T22:53:55.270Z,23.80
2023-01-11T22:57:44.456Z,25.00
2023-01-11T23:01:33.844Z,29.50
2023-01-11T23:05:23.085Z,21.90
2023-01-11T23:09:14.152Z,21.30
2023-01-11T23:13:03.082Z,40.60
2023-01-11T23:16:52.391Z,54.20
2023-01-11T23:20:41.672Z,32.10
2023-01-11T23:24:30.579Z,33.70
2023-01-11T23:28:12.296Z,28.30
2023-01-11T23:32:01.543Z,20.00
2023-01-11T23:35:50.720Z,14.60
2023-01-11T23:39:39.689Z,15.20
2023-01-11T23:43:28.841Z,11.80
2023-01-11T23:47:16.479Z,17.70
2023-01-11T23:51:05.502Z,17.70
2023-01-11T23:54:46.808Z,9.90
2023-01-11T23:58:36.093Z,11.30
